Main page
METAR-TAF:

METAR-TAF

Airports :

Varna Airport

Varna, Bulgaria

latitude: 43-12N, longitude: 027-55E, elevation: 41 m

Current weather observation

The report was made 16 minutes ago, at 01:30 UTC
Wind 4 kt from the West, varying between Southwest and North/Northwest
Temperature 19°C
Humidity 52%
Pressure 1015 hPa
Visibility 10 km or more
no clouds below 1500 m and no cumulonimbus

METAR: LBWN 200130Z 27004KT 220V340 CAVOK 19/09 Q1015 NOSIG

Time: 04:46 (01:46 UTC)

Forecast

The report was made 2 hours and 46 minutes ago, at 23:00 UTC
Forecast valid from 20 at 00 UTC to 20 at 24 UTC
Wind 8 kt from the Northwest
Visibility 10 km or more
no clouds below 1500 m and no cumulonimbus
Becoming
from 20 at 08 UTC to 20 at 10 UTC
Wind 12 kt from the East
Becoming
from 20 at 18 UTC to 20 at 20 UTC
Wind 8 kt from the North

TAF: LBWN 192300Z 2000/2024 32008KT CAVOK BECMG 2008/2010 08012KT BECMG 2018/2020 01008KT

Weather observations and forecasts of more than 4000 airports (METAR and TAF reports).

The available stations are represented by yellow and red dots on the map.

Hover mouse over dot to see the name of the station.

Then click to see weather observations and forecasts.

To change the map : click on the green buttons with a black cross to zoom in, on the green button with a dash to zoom out, or on the green arrows for adjacent maps.


METAR-TAF: